sensor_id;sensor_type;location;lat;lon;timestamp;temperature;humidity
9802;DHT22;4940;50.900;4.672;2022-08-19T00:00:36;20.20;99.90
9802;DHT22;4940;50.900;4.672;2022-08-19T00:03:05;20.20;99.90
9802;DHT22;4940;50.900;4.672;2022-08-19T00:05:33;20.10;99.90
9802;DHT22;4940;50.900;4.672;2022-08-19T00:08:03;20.30;99.90
9802;DHT22;4940;50.900;4.672;2022-08-19T00:22:51;20.10;99.90
9802;DHT22;4940;50.900;4.672;2022-08-19T00:27:53;20.10;99.90
9802;DHT22;4940;50.900;4.672;2022-08-19T00:30:34;20.00;99.90
9802;DHT22;4940;50.900;4.672;2022-08-19T00:35:39;20.00;99.90
9802;DHT22;4940;50.900;4.672;2022-08-19T00:40:43;20.00;99.90
9802;DHT22;4940;50.900;4.672;2022-08-19T00:43:13;20.10;99.90
9802;DHT22;4940;50.900;4.672;2022-08-19T00:48:10;19.90;99.90
9802;DHT22;4940;50.900;4.672;2022-08-19T00:50:39;19.90;99.90
9802;DHT22;4940;50.900;4.672;2022-08-19T00:53:09;19.90;99.90
9802;DHT22;4940;50.900;4.672;2022-08-19T00:55:40;19.90;99.90
9802;DHT22;4940;50.900;4.672;2022-08-19T00:58:13;19.90;99.90
9802;DHT22;4940;50.900;4.672;2022-08-19T01:00:51;19.90;99.90
9802;DHT22;4940;50.900;4.672;2022-08-19T01:03:19;19.90;99.90
9802;DHT22;4940;50.900;4.672;2022-08-19T01:05:50;19.80;99.90
9802;DHT22;4940;50.900;4.672;2022-08-19T01:11:08;19.80;99.90
9802;DHT22;4940;50.900;4.672;2022-08-19T01:13:39;19.70;99.90
9802;DHT22;4940;50.900;4.672;2022-08-19T01:16:10;19.70;99.90
9802;DHT22;4940;50.900;4.672;2022-08-19T01:18:53;19.70;99.90
9802;DHT22;4940;50.900;4.672;2022-08-19T01:21:26;19.70;99.90
9802;DHT22;4940;50.900;4.672;2022-08-19T01:23:57;19.60;99.90
9802;DHT22;4940;50.900;4.672;2022-08-19T01:26:25;19.70;99.90
9802;DHT22;4940;50.900;4.672;2022-08-19T01:28:55;19.60;99.90
9802;DHT22;4940;50.900;4.672;2022-08-19T01:33:52;19.60;99.90
9802;DHT22;4940;50.900;4.672;2022-08-19T01:36:24;19.60;99.90
9802;DHT22;4940;50.900;4.672;2022-08-19T01:38:52;19.50;99.90
9802;DHT22;4940;50.900;4.672;2022-08-19T01:41:20;19.40;99.90
9802;DHT22;4940;50.900;4.672;2022-08-19T01:43:49;19.50;99.90
9802;DHT22;4940;50.900;4.672;2022-08-19T01:46:16;19.40;99.90
9802;DHT22;4940;50.900;4.672;2022-08-19T01:51:12;19.40;99.90
9802;DHT22;4940;50.900;4.672;2022-08-19T01:53:47;19.30;99.90
9802;DHT22;4940;50.900;4.672;2022-08-19T01:58:46;19.40;99.90
9802;DHT22;4940;50.900;4.672;2022-08-19T02:03:43;19.10;99.90
9802;DHT22;4940;50.900;4.672;2022-08-19T02:06:12;19.10;99.90
9802;DHT22;4940;50.900;4.672;2022-08-19T02:08:39;19.10;99.90
9802;DHT22;4940;50.900;4.672;2022-08-19T02:11:07;19.00;99.90
9802;DHT22;4940;50.900;4.672;2022-08-19T02:13:34;19.00;99.90
9802;DHT22;4940;50.900;4.672;2022-08-19T02:16:05;18.90;99.90
9802;DHT22;4940;50.900;4.672;2022-08-19T02:18:32;18.80;99.90
9802;DHT22;4940;50.900;4.672;2022-08-19T02:23:27;18.80;99.90
9802;DHT22;4940;50.900;4.672;2022-08-19T02:33:18;18.60;99.90
9802;DHT22;4940;50.900;4.672;2022-08-19T02:35:46;18.60;99.90
9802;DHT22;4940;50.900;4.672;2022-08-19T02:38:14;18.60;99.90
9802;DHT22;4940;50.900;4.672;2022-08-19T02:40:57;18.70;99.90
9802;DHT22;4940;50.900;4.672;2022-08-19T02:43:25;18.50;99.90
9802;DHT22;4940;50.900;4.672;2022-08-19T02:45:53;18.50;99.90
9802;DHT22;4940;50.900;4.672;2022-08-19T02:48:24;18.50;99.90
9802;DHT22;4940;50.900;4.672;2022-08-19T02:53:20;18.40;99.90
9802;DHT22;4940;50.900;4.672;2022-08-19T02:55:48;18.40;99.90
9802;DHT22;4940;50.900;4.672;2022-08-19T02:58:16;18.30;99.90
9802;DHT22;4940;50.900;4.672;2022-08-19T03:00:47;18.30;99.90
9802;DHT22;4940;50.900;4.672;2022-08-19T03:03:15;18.00;99.90
9802;DHT22;4940;50.900;4.672;2022-08-19T03:05:44;18.30;99.90
9802;DHT22;4940;50.900;4.672;2022-08-19T03:08:13;18.20;99.90
9802;DHT22;4940;50.900;4.672;2022-08-19T03:10:42;18.20;99.90
9802;DHT22;4940;50.900;4.672;2022-08-19T03:13:25;18.20;99.90
9802;DHT22;4940;50.900;4.672;2022-08-19T03:15:57;18.10;99.90
9802;DHT22;4940;50.900;4.672;2022-08-19T03:18:24;18.20;99.90
9802;DHT22;4940;50.900;4.672;2022-08-19T03:20:53;18.10;99.90
9802;DHT22;4940;50.900;4.672;2022-08-19T03:23:20;18.10;99.90
9802;DHT22;4940;50.900;4.672;2022-08-19T03:25:49;18.10;99.90
9802;DHT22;4940;50.900;4.672;2022-08-19T03:28:17;18.10;99.90
9802;DHT22;4940;50.900;4.672;2022-08-19T03:30:56;18.10;99.90
9802;DHT22;4940;50.900;4.672;2022-08-19T03:33:23;18.00;99.90
9802;DHT22;4940;50.900;4.672;2022-08-19T03:36:05;18.00;99.90
9802;DHT22;4940;50.900;4.672;2022-08-19T03:38:41;18.00;99.90
9802;DHT22;4940;50.900;4.672;2022-08-19T03:41:10;17.90;99.90
9802;DHT22;4940;50.900;4.672;2022-08-19T03:43:39;17.90;99.90
9802;DHT22;4940;50.900;4.672;2022-08-19T03:46:08;17.90;99.90
9802;DHT22;4940;50.900;4.672;2022-08-19T03:51:06;17.90;99.90
9802;DHT22;4940;50.900;4.672;2022-08-19T03:53:35;17.80;99.90
9802;DHT22;4940;50.900;4.672;2022-08-19T03:56:08;17.80;99.90
9802;DHT22;4940;50.900;4.672;2022-08-19T03:58:35;17.80;99.90
9802;DHT22;4940;50.900;4.672;2022-08-19T04:01:07;17.70;99.90
9802;DHT22;4940;50.900;4.672;2022-08-19T04:03:34;17.80;99.90
9802;DHT22;4940;50.900;4.672;2022-08-19T04:08:38;17.70;99.90
9802;DHT22;4940;50.900;4.672;2022-08-19T04:13:34;17.60;99.90
9802;DHT22;4940;50.900;4.672;2022-08-19T04:18:30;17.60;99.90
9802;DHT22;4940;50.900;4.672;2022-08-19T04:20:58;17.50;99.90
9802;DHT22;4940;50.900;4.672;2022-08-19T04:23:30;17.50;99.90
9802;DHT22;4940;50.900;4.672;2022-08-19T04:25:58;17.50;99.90
9802;DHT22;4940;50.900;4.672;2022-08-19T04:28:25;17.50;99.90
9802;DHT22;4940;50.900;4.672;2022-08-19T04:30:55;17.50;99.90
9802;DHT22;4940;50.900;4.672;2022-08-19T04:38:23;17.40;99.90
9802;DHT22;4940;50.900;4.672;2022-08-19T04:40:52;17.30;99.90
9802;DHT22;4940;50.900;4.672;2022-08-19T04:43:37;17.40;99.90
9802;DHT22;4940;50.900;4.672;2022-08-19T04:46:05;17.30;99.90
9802;DHT22;4940;50.900;4.672;2022-08-19T04:48:33;17.40;99.90
9802;DHT22;4940;50.900;4.672;2022-08-19T04:51:01;17.40;99.90
9802;DHT22;4940;50.900;4.672;2022-08-19T04:56:05;17.30;99.90
9802;DHT22;4940;50.900;4.672;2022-08-19T04:58:32;17.40;99.90
9802;DHT22;4940;50.900;4.672;2022-08-19T05:00:59;17.30;99.90
9802;DHT22;4940;50.900;4.672;2022-08-19T05:03:27;17.30;99.90
9802;DHT22;4940;50.900;4.672;2022-08-19T05:05:59;17.20;99.90
9802;DHT22;4940;50.900;4.672;2022-08-19T05:08:30;17.20;99.90
9802;DHT22;4940;50.900;4.672;2022-08-19T05:10:57;17.30;99.90
9802;DHT22;4940;50.900;4.672;2022-08-19T05:15:54;17.40;99.90
9802;DHT22;4940;50.900;4.672;2022-08-19T05:18:21;17.40;99.90
9802;DHT22;4940;50.900;4.672;2022-08-19T05:21:07;17.30;99.90
9802;DHT22;4940;50.900;4.672;2022-08-19T05:23:52;17.50;99.90
9802;DHT22;4940;50.900;4.672;2022-08-19T05:26:19;17.60;99.90
9802;DHT22;4940;50.900;4.672;2022-08-19T05:28:48;17.60;99.90
9802;DHT22;4940;50.900;4.672;2022-08-19T05:31:15;17.60;99.90
9802;DHT22;4940;50.900;4.672;2022-08-19T05:33:42;17.80;99.90
9802;DHT22;4940;50.900;4.672;2022-08-19T05:38:37;18.10;99.90
9802;DHT22;4940;50.900;4.672;2022-08-19T05:41:07;18.30;99.90
9802;DHT22;4940;50.900;4.672;2022-08-19T05:43:34;18.60;99.90
9802;DHT22;4940;50.900;4.672;2022-08-19T05:48:31;19.20;99.90
9802;DHT22;4940;50.900;4.672;2022-08-19T05:51:03;19.70;99.90
9802;DHT22;4940;50.900;4.672;2022-08-19T05:53:31;19.60;99.90
9802;DHT22;4940;50.900;4.672;2022-08-19T05:58:30;20.30;99.90
9802;DHT22;4940;50.900;4.672;2022-08-19T06:00:58;20.90;99.90
9802;DHT22;4940;50.900;4.672;2022-08-19T06:03:32;20.90;99.90
9802;DHT22;4940;50.900;4.672;2022-08-19T06:05:59;21.20;99.90
9802;DHT22;4940;50.900;4.672;2022-08-19T06:08:28;21.40;99.90
9802;DHT22;4940;50.900;4.672;2022-08-19T06:10:56;21.50;99.90
9802;DHT22;4940;50.900;4.672;2022-08-19T06:13:23;21.70;99.90
9802;DHT22;4940;50.900;4.672;2022-08-19T06:18:18;22.20;99.90
9802;DHT22;4940;50.900;4.672;2022-08-19T06:20:47;22.40;99.90
9802;DHT22;4940;50.900;4.672;2022-08-19T06:23:14;22.40;99.90
9802;DHT22;4940;50.900;4.672;2022-08-19T06:25:42;22.50;99.90
9802;DHT22;4940;50.900;4.672;2022-08-19T06:28:09;22.60;99.90
9802;DHT22;4940;50.900;4.672;2022-08-19T06:30:36;22.50;99.90
9802;DHT22;4940;50.900;4.672;2022-08-19T06:33:03;18.90;99.90
9802;DHT22;4940;50.900;4.672;2022-08-19T06:35:31;22.50;99.90
9802;DHT22;4940;50.900;4.672;2022-08-19T06:38:00;22.40;99.90
9802;DHT22;4940;50.900;4.672;2022-08-19T06:40:28;22.30;99.90
9802;DHT22;4940;50.900;4.672;2022-08-19T06:42:56;22.40;99.90
9802;DHT22;4940;50.900;4.672;2022-08-19T06:45:25;22.40;99.90
9802;DHT22;4940;50.900;4.672;2022-08-19T06:50:21;22.40;99.90
9802;DHT22;4940;50.900;4.672;2022-08-19T06:52:48;22.50;99.90
9802;DHT22;4940;50.900;4.672;2022-08-19T06:55:19;22.50;99.90
9802;DHT22;4940;50.900;4.672;2022-08-19T07:00:14;22.50;99.90
9802;DHT22;4940;50.900;4.672;2022-08-19T07:02:41;22.60;99.90
9802;DHT22;4940;50.900;4.672;2022-08-19T07:07:36;22.60;99.90
9802;DHT22;4940;50.900;4.672;2022-08-19T07:15:01;22.60;99.90
9802;DHT22;4940;50.900;4.672;2022-08-19T07:22:22;22.70;99.90
9802;DHT22;4940;50.900;4.672;2022-08-19T07:24:50;22.70;99.90
9802;DHT22;4940;50.900;4.672;2022-08-19T07:27:18;22.70;99.90
9802;DHT22;4940;50.900;4.672;2022-08-19T07:29:47;22.80;99.90
9802;DHT22;4940;50.900;4.672;2022-08-19T07:34:41;23.10;99.90
9802;DHT22;4940;50.900;4.672;2022-08-19T07:39:37;23.40;99.90
9802;DHT22;4940;50.900;4.672;2022-08-19T07:42:09;23.80;99.90
9802;DHT22;4940;50.900;4.672;2022-08-19T07:44:37;24.00;99.90
9802;DHT22;4940;50.900;4.672;2022-08-19T07:47:06;24.20;99.90
9802;DHT22;4940;50.900;4.672;2022-08-19T07:49:33;24.20;99.90
9802;DHT22;4940;50.900;4.672;2022-08-19T07:52:04;24.30;99.90
9802;DHT22;4940;50.900;4.672;2022-08-19T07:54:34;25.00;99.90
9802;DHT22;4940;50.900;4.672;2022-08-19T07:59:30;25.10;99.90
9802;DHT22;4940;50.900;4.672;2022-08-19T08:10:04;26.70;99.90
9802;DHT22;4940;50.900;4.672;2022-08-19T08:12:34;27.10;99.90
9802;DHT22;4940;50.900;4.672;2022-08-19T08:15:08;27.10;99.90
9802;DHT22;4940;50.900;4.672;2022-08-19T08:25:23;27.30;99.90
9802;DHT22;4940;50.900;4.672;2022-08-19T08:30:24;27.40;99.90
9802;DHT22;4940;50.900;4.672;2022-08-19T08:32:51;27.50;99.90
9802;DHT22;4940;50.900;4.672;2022-08-19T08:35:22;27.90;99.90
9802;DHT22;4940;50.900;4.672;2022-08-19T08:40:21;28.10;99.90
9802;DHT22;4940;50.900;4.672;2022-08-19T08:45:27;28.00;99.90
9802;DHT22;4940;50.900;4.672;2022-08-19T08:47:57;28.20;99.90
9802;DHT22;4940;50.900;4.672;2022-08-19T08:50:32;28.40;99.90
9802;DHT22;4940;50.900;4.672;2022-08-19T09:08:05;29.80;99.90
9802;DHT22;4940;50.900;4.672;2022-08-19T09:30:39;28.50;99.90
9802;DHT22;4940;50.900;4.672;2022-08-19T09:45:37;28.00;99.90
9802;DHT22;4940;50.900;4.672;2022-08-19T09:53:00;27.90;99.90
9802;DHT22;4940;50.900;4.672;2022-08-19T10:00:25;27.90;99.90
9802;DHT22;4940;50.900;4.672;2022-08-19T10:02:53;28.00;99.90
9802;DHT22;4940;50.900;4.672;2022-08-19T10:05:20;27.90;99.90
9802;DHT22;4940;50.900;4.672;2022-08-19T10:08:04;27.90;99.90
9802;DHT22;4940;50.900;4.672;2022-08-19T10:13:03;27.80;99.90
9802;DHT22;4940;50.900;4.672;2022-08-19T10:15:31;27.80;99.90
9802;DHT22;4940;50.900;4.672;2022-08-19T10:17:58;27.80;99.90
9802;DHT22;4940;50.900;4.672;2022-08-19T10:20:25;28.10;99.90
9802;DHT22;4940;50.900;4.672;2022-08-19T10:22:52;28.00;99.90
9802;DHT22;4940;50.900;4.672;2022-08-19T10:25:22;28.10;99.90
9802;DHT22;4940;50.900;4.672;2022-08-19T10:27:50;28.20;99.90
9802;DHT22;4940;50.900;4.672;2022-08-19T10:32:46;28.30;99.90
9802;DHT22;4940;50.900;4.672;2022-08-19T10:35:14;28.30;99.90
9802;DHT22;4940;50.900;4.672;2022-08-19T10:40:09;28.40;99.90
9802;DHT22;4940;50.900;4.672;2022-08-19T10:42:39;28.50;99.90
9802;DHT22;4940;50.900;4.672;2022-08-19T10:45:08;28.50;99.90
9802;DHT22;4940;50.900;4.672;2022-08-19T10:52:49;28.80;99.90
9802;DHT22;4940;50.900;4.672;2022-08-19T10:55:18;28.90;99.90
9802;DHT22;4940;50.900;4.672;2022-08-19T11:02:59;29.20;99.90
9802;DHT22;4940;50.900;4.672;2022-08-19T11:05:26;29.20;99.80
9802;DHT22;4940;50.900;4.672;2022-08-19T11:20:19;28.90;99.90
9802;DHT22;4940;50.900;4.672;2022-08-19T11:25:14;28.80;99.80
9802;DHT22;4940;50.900;4.672;2022-08-19T11:27:41;29.00;99.90
9802;DHT22;4940;50.900;4.672;2022-08-19T11:52:44;28.10;99.90
9802;DHT22;4940;50.900;4.672;2022-08-19T11:55:13;28.20;99.90
9802;DHT22;4940;50.900;4.672;2022-08-19T11:57:41;28.00;99.90
9802;DHT22;4940;50.900;4.672;2022-08-19T12:07:36;27.90;99.90
9802;DHT22;4940;50.900;4.672;2022-08-19T12:17:27;27.70;99.90
9802;DHT22;4940;50.900;4.672;2022-08-19T12:22:22;27.80;99.90
9802;DHT22;4940;50.900;4.672;2022-08-19T12:27:18;27.90;99.90
9802;DHT22;4940;50.900;4.672;2022-08-19T12:37:10;28.00;99.90
9802;DHT22;4940;50.900;4.672;2022-08-19T12:39:39;28.20;99.90
9802;DHT22;4940;50.900;4.672;2022-08-19T12:42:12;28.30;99.90
9802;DHT22;4940;50.900;4.672;2022-08-19T12:44:40;28.30;99.90
9802;DHT22;4940;50.900;4.672;2022-08-19T12:47:10;28.50;99.90
9802;DHT22;4940;50.900;4.672;2022-08-19T12:49:38;28.70;99.90
9802;DHT22;4940;50.900;4.672;2022-08-19T12:52:06;28.80;99.90
9802;DHT22;4940;50.900;4.672;2022-08-19T13:02:02;29.20;99.90
9802;DHT22;4940;50.900;4.672;2022-08-19T13:04:31;29.30;99.90
9802;DHT22;4940;50.900;4.672;2022-08-19T13:09:28;29.50;99.90
9802;DHT22;4940;50.900;4.672;2022-08-19T13:11:55;29.50;99.90
9802;DHT22;4940;50.900;4.672;2022-08-19T13:14:23;29.50;99.90
9802;DHT22;4940;50.900;4.672;2022-08-19T13:24:17;29.90;99.30
9802;DHT22;4940;50.900;4.672;2022-08-19T13:26:44;29.90;98.80
9802;DHT22;4940;50.900;4.672;2022-08-19T13:31:58;29.80;98.30
9802;DHT22;4940;50.900;4.672;2022-08-19T13:34:43;29.80;98.10
9802;DHT22;4940;50.900;4.672;2022-08-19T13:39:37;29.50;98.40
9802;DHT22;4940;50.900;4.672;2022-08-19T13:42:05;29.40;98.60
9802;DHT22;4940;50.900;4.672;2022-08-19T13:44:32;29.30;99.00
9802;DHT22;4940;50.900;4.672;2022-08-19T13:47:02;29.20;98.80
9802;DHT22;4940;50.900;4.672;2022-08-19T13:49:31;29.20;98.90
9802;DHT22;4940;50.900;4.672;2022-08-19T13:54:28;29.20;99.10
9802;DHT22;4940;50.900;4.672;2022-08-19T14:19:07;29.40;97.90
9802;DHT22;4940;50.900;4.672;2022-08-19T14:21:35;29.50;97.90
9802;DHT22;4940;50.900;4.672;2022-08-19T14:28:59;29.60;97.60
9802;DHT22;4940;50.900;4.672;2022-08-19T14:31:27;29.60;97.40
9802;DHT22;4940;50.900;4.672;2022-08-19T14:33:54;29.50;97.60
9802;DHT22;4940;50.900;4.672;2022-08-19T14:36:21;29.50;97.70
9802;DHT22;4940;50.900;4.672;2022-08-19T14:41:19;29.40;97.40
9802;DHT22;4940;50.900;4.672;2022-08-19T14:46:25;28.90;97.40
9802;DHT22;4940;50.900;4.672;2022-08-19T14:48:56;29.20;97.50
9802;DHT22;4940;50.900;4.672;2022-08-19T14:51:28;29.20;97.40
9802;DHT22;4940;50.900;4.672;2022-08-19T14:54:02;29.00;97.70
9802;DHT22;4940;50.900;4.672;2022-08-19T15:06:37;27.90;99.90
9802;DHT22;4940;50.900;4.672;2022-08-19T15:09:07;27.30;99.90
9802;DHT22;4940;50.900;4.672;2022-08-19T15:11:35;27.30;99.90
9802;DHT22;4940;50.900;4.672;2022-08-19T15:14:02;26.90;99.90
9802;DHT22;4940;50.900;4.672;2022-08-19T15:18:59;26.50;99.90
9802;DHT22;4940;50.900;4.672;2022-08-19T15:21:27;26.60;99.90
9802;DHT22;4940;50.900;4.672;2022-08-19T15:23:56;26.40;99.90
9802;DHT22;4940;50.900;4.672;2022-08-19T15:31:26;26.40;99.90
9802;DHT22;4940;50.900;4.672;2022-08-19T15:33:54;29.70;99.90
9802;DHT22;4940;50.900;4.672;2022-08-19T15:36:23;26.30;99.90
9802;DHT22;4940;50.900;4.672;2022-08-19T15:41:20;26.20;99.90
9802;DHT22;4940;50.900;4.672;2022-08-19T15:43:53;26.20;99.90
9802;DHT22;4940;50.900;4.672;2022-08-19T15:46:23;26.20;99.90
9802;DHT22;4940;50.900;4.672;2022-08-19T15:53:47;26.20;99.90
9802;DHT22;4940;50.900;4.672;2022-08-19T16:01:36;26.50;99.90
9802;DHT22;4940;50.900;4.672;2022-08-19T16:09:59;26.80;99.90
9802;DHT22;4940;50.900;4.672;2022-08-19T16:57:59;26.30;99.90
9802;DHT22;4940;50.900;4.672;2022-08-19T17:06:09;26.20;99.90
9802;DHT22;4940;50.900;4.672;2022-08-19T18:15:47;25.00;99.90
9802;DHT22;4940;50.900;4.672;2022-08-19T18:18:15;24.80;99.90
9802;DHT22;4940;50.900;4.672;2022-08-19T18:20:46;24.70;99.90
9802;DHT22;4940;50.900;4.672;2022-08-19T18:32:03;23.60;99.90
9802;DHT22;4940;50.900;4.672;2022-08-19T18:34:47;23.60;99.90
9802;DHT22;4940;50.900;4.672;2022-08-19T18:49:01;22.90;99.90
9802;DHT22;4940;50.900;4.672;2022-08-19T18:51:52;22.90;99.90
9802;DHT22;4940;50.900;4.672;2022-08-19T18:54:35;22.90;99.90
9802;DHT22;4940;50.900;4.672;2022-08-19T18:57:09;22.70;99.90
9802;DHT22;4940;50.900;4.672;2022-08-19T18:59:37;22.70;99.90
9802;DHT22;4940;50.900;4.672;2022-08-19T19:05:05;22.70;99.90
9802;DHT22;4940;50.900;4.672;2022-08-19T19:07:33;22.70;99.90
9802;DHT22;4940;50.900;4.672;2022-08-19T19:10:00;22.70;99.90
9802;DHT22;4940;50.900;4.672;2022-08-19T19:12:28;22.60;99.90
9802;DHT22;4940;50.900;4.672;2022-08-19T19:14:56;22.70;99.90
9802;DHT22;4940;50.900;4.672;2022-08-19T19:17:23;22.70;99.90
9802;DHT22;4940;50.900;4.672;2022-08-19T19:19:53;22.70;99.90
9802;DHT22;4940;50.900;4.672;2022-08-19T19:22:22;22.70;99.90
9802;DHT22;4940;50.900;4.672;2022-08-19T19:24:50;22.70;99.90
9802;DHT22;4940;50.900;4.672;2022-08-19T19:27:19;22.70;99.90
9802;DHT22;4940;50.900;4.672;2022-08-19T19:29:47;22.70;99.90
9802;DHT22;4940;50.900;4.672;2022-08-19T19:32:17;22.70;99.90
9802;DHT22;4940;50.900;4.672;2022-08-19T19:34:45;22.70;99.90
9802;DHT22;4940;50.900;4.672;2022-08-19T19:37:13;22.70;99.90
9802;DHT22;4940;50.900;4.672;2022-08-19T19:39:42;22.70;99.90
9802;DHT22;4940;50.900;4.672;2022-08-19T19:42:14;22.70;99.90
9802;DHT22;4940;50.900;4.672;2022-08-19T19:44:42;22.70;99.90
9802;DHT22;4940;50.900;4.672;2022-08-19T19:47:13;22.70;99.90
9802;DHT22;4940;50.900;4.672;2022-08-19T19:49:43;22.70;99.90
9802;DHT22;4940;50.900;4.672;2022-08-19T19:52:10;22.70;99.90
9802;DHT22;4940;50.900;4.672;2022-08-19T19:54:37;22.70;99.90
9802;DHT22;4940;50.900;4.672;2022-08-19T19:57:06;22.60;99.90
9802;DHT22;4940;50.900;4.672;2022-08-19T19:59:33;22.70;99.90
9802;DHT22;4940;50.900;4.672;2022-08-19T20:02:01;22.70;99.90
9802;DHT22;4940;50.900;4.672;2022-08-19T20:06:57;22.70;99.90
9802;DHT22;4940;50.900;4.672;2022-08-19T20:09:25;22.60;99.90
9802;DHT22;4940;50.900;4.672;2022-08-19T20:11:52;22.60;99.90
9802;DHT22;4940;50.900;4.672;2022-08-19T20:14:23;22.60;99.90
9802;DHT22;4940;50.900;4.672;2022-08-19T20:16:52;22.60;99.90
9802;DHT22;4940;50.900;4.672;2022-08-19T20:19:21;22.60;99.90
9802;DHT22;4940;50.900;4.672;2022-08-19T20:21:51;22.60;99.90
9802;DHT22;4940;50.900;4.672;2022-08-19T20:24:21;22.50;99.90
9802;DHT22;4940;50.900;4.672;2022-08-19T20:26:49;22.60;99.90
9802;DHT22;4940;50.900;4.672;2022-08-19T20:29:17;22.40;99.90
9802;DHT22;4940;50.900;4.672;2022-08-19T20:31:47;22.50;99.90
9802;DHT22;4940;50.900;4.672;2022-08-19T20:34:15;22.50;99.90
9802;DHT22;4940;50.900;4.672;2022-08-19T20:36:42;22.50;99.90
9802;DHT22;4940;50.900;4.672;2022-08-19T20:39:10;22.50;99.90
9802;DHT22;4940;50.900;4.672;2022-08-19T20:41:38;22.50;99.90
9802;DHT22;4940;50.900;4.672;2022-08-19T20:44:05;22.40;99.90
9802;DHT22;4940;50.900;4.672;2022-08-19T20:46:33;22.40;99.90
9802;DHT22;4940;50.900;4.672;2022-08-19T20:49:02;22.40;99.90
9802;DHT22;4940;50.900;4.672;2022-08-19T20:51:30;22.40;99.90
9802;DHT22;4940;50.900;4.672;2022-08-19T20:53:57;22.40;99.90
9802;DHT22;4940;50.900;4.672;2022-08-19T20:56:25;22.40;99.90
9802;DHT22;4940;50.900;4.672;2022-08-19T20:58:53;22.40;99.90
9802;DHT22;4940;50.900;4.672;2022-08-19T21:01:20;22.30;99.90
9802;DHT22;4940;50.900;4.672;2022-08-19T21:03:48;22.30;99.90
9802;DHT22;4940;50.900;4.672;2022-08-19T21:06:17;22.30;99.90
9802;DHT22;4940;50.900;4.672;2022-08-19T21:08:45;22.30;99.90
9802;DHT22;4940;50.900;4.672;2022-08-19T21:11:13;22.30;99.90
9802;DHT22;4940;50.900;4.672;2022-08-19T21:13:41;22.20;99.90
9802;DHT22;4940;50.900;4.672;2022-08-19T21:16:08;22.20;99.90
9802;DHT22;4940;50.900;4.672;2022-08-19T21:18:36;22.10;99.90
9802;DHT22;4940;50.900;4.672;2022-08-19T21:23:33;22.10;99.90
9802;DHT22;4940;50.900;4.672;2022-08-19T21:26:00;22.10;99.90
9802;DHT22;4940;50.900;4.672;2022-08-19T21:28:27;22.10;99.90
9802;DHT22;4940;50.900;4.672;2022-08-19T21:30:56;22.10;99.90
9802;DHT22;4940;50.900;4.672;2022-08-19T21:33:24;22.10;99.90
9802;DHT22;4940;50.900;4.672;2022-08-19T21:35:51;21.90;99.90
9802;DHT22;4940;50.900;4.672;2022-08-19T21:38:19;22.00;99.90
9802;DHT22;4940;50.900;4.672;2022-08-19T21:40:48;21.90;99.90
9802;DHT22;4940;50.900;4.672;2022-08-19T21:43:16;22.00;99.90
9802;DHT22;4940;50.900;4.672;2022-08-19T21:45:44;22.00;99.90
9802;DHT22;4940;50.900;4.672;2022-08-19T21:48:11;22.00;99.90
9802;DHT22;4940;50.900;4.672;2022-08-19T21:50:39;22.00;99.90
9802;DHT22;4940;50.900;4.672;2022-08-19T21:53:06;21.90;99.90
9802;DHT22;4940;50.900;4.672;2022-08-19T21:55:34;21.80;99.90
9802;DHT22;4940;50.900;4.672;2022-08-19T21:58:03;21.80;99.90
9802;DHT22;4940;50.900;4.672;2022-08-19T22:00:30;21.80;99.90
9802;DHT22;4940;50.900;4.672;2022-08-19T22:02:59;21.60;99.90
9802;DHT22;4940;50.900;4.672;2022-08-19T22:05:27;21.70;99.90
9802;DHT22;4940;50.900;4.672;2022-08-19T22:07:57;21.70;99.90
9802;DHT22;4940;50.900;4.672;2022-08-19T22:10:26;21.70;99.90
9802;DHT22;4940;50.900;4.672;2022-08-19T22:12:55;21.50;99.90
9802;DHT22;4940;50.900;4.672;2022-08-19T22:15:24;21.70;99.90
9802;DHT22;4940;50.900;4.672;2022-08-19T22:17:52;21.60;99.90
9802;DHT22;4940;50.900;4.672;2022-08-19T22:20:22;21.70;99.90
9802;DHT22;4940;50.900;4.672;2022-08-19T22:22:52;21.70;99.90
9802;DHT22;4940;50.900;4.672;2022-08-19T22:25:24;21.80;99.90
9802;DHT22;4940;50.900;4.672;2022-08-19T22:27:54;21.70;99.90
9802;DHT22;4940;50.900;4.672;2022-08-19T22:30:24;21.70;99.90
9802;DHT22;4940;50.900;4.672;2022-08-19T22:32:54;21.70;99.90
9802;DHT22;4940;50.900;4.672;2022-08-19T22:35:26;21.70;99.90
9802;DHT22;4940;50.900;4.672;2022-08-19T22:37:54;21.70;99.90
9802;DHT22;4940;50.900;4.672;2022-08-19T22:40:21;21.70;99.90
9802;DHT22;4940;50.900;4.672;2022-08-19T22:42:56;21.70;99.90
9802;DHT22;4940;50.900;4.672;2022-08-19T22:45:26;21.70;99.90
9802;DHT22;4940;50.900;4.672;2022-08-19T22:47:54;21.60;99.90
9802;DHT22;4940;50.900;4.672;2022-08-19T22:50:22;21.60;99.90
9802;DHT22;4940;50.900;4.672;2022-08-19T22:52:54;21.60;99.90
9802;DHT22;4940;50.900;4.672;2022-08-19T22:55:22;21.60;99.90
9802;DHT22;4940;50.900;4.672;2022-08-19T22:57:50;21.60;99.90
9802;DHT22;4940;50.900;4.672;2022-08-19T23:00:18;21.60;99.90
9802;DHT22;4940;50.900;4.672;2022-08-19T23:02:47;21.50;99.90
9802;DHT22;4940;50.900;4.672;2022-08-19T23:05:15;21.50;99.90
9802;DHT22;4940;50.900;4.672;2022-08-19T23:07:42;21.50;99.90
9802;DHT22;4940;50.900;4.672;2022-08-19T23:10:10;21.50;99.90
9802;DHT22;4940;50.900;4.672;2022-08-19T23:12:40;21.50;99.90
9802;DHT22;4940;50.900;4.672;2022-08-19T23:15:11;21.40;99.90
9802;DHT22;4940;50.900;4.672;2022-08-19T23:17:39;21.40;99.90
9802;DHT22;4940;50.900;4.672;2022-08-19T23:20:12;21.40;99.90
9802;DHT22;4940;50.900;4.672;2022-08-19T23:22:40;21.40;99.90
9802;DHT22;4940;50.900;4.672;2022-08-19T23:25:12;21.40;99.90
9802;DHT22;4940;50.900;4.672;2022-08-19T23:27:39;21.40;99.90
9802;DHT22;4940;50.900;4.672;2022-08-19T23:32:52;21.40;99.90
9802;DHT22;4940;50.900;4.672;2022-08-19T23:35:21;21.40;99.90
9802;DHT22;4940;50.900;4.672;2022-08-19T23:37:49;21.40;99.90
9802;DHT22;4940;50.900;4.672;2022-08-19T23:40:17;21.30;99.90
9802;DHT22;4940;50.900;4.672;2022-08-19T23:42:47;21.30;99.90
9802;DHT22;4940;50.900;4.672;2022-08-19T23:45:15;21.30;99.90
9802;DHT22;4940;50.900;4.672;2022-08-19T23:47:43;21.30;99.90
9802;DHT22;4940;50.900;4.672;2022-08-19T23:50:11;21.30;99.90
9802;DHT22;4940;50.900;4.672;2022-08-19T23:52:46;21.20;99.90
9802;DHT22;4940;50.900;4.672;2022-08-19T23:55:14;21.10;99.90
9802;DHT22;4940;50.900;4.672;2022-08-19T23:57:42;21.00;99.90
